createdAt,value
2024-01-24T00:00:19.212Z,60.37
2024-01-24T00:02:50.297Z,60.59
2024-01-24T00:05:18.055Z,60.51
2024-01-24T00:07:46.823Z,60.49
2024-01-24T00:10:14.492Z,60.44
2024-01-24T00:12:41.993Z,60.38
2024-01-24T00:15:09.970Z,60.54
2024-01-24T00:17:37.462Z,60.54
2024-01-24T00:20:05.195Z,60.66
2024-01-24T00:22:32.630Z,60.64
2024-01-24T00:25:01.391Z,60.58
2024-01-24T00:27:28.875Z,60.74
2024-01-24T00:29:56.310Z,60.62
2024-01-24T00:32:23.886Z,60.72
2024-01-24T00:34:51.392Z,60.89
2024-01-24T00:37:19.014Z,60.79
2024-01-24T00:39:47.771Z,60.86
2024-01-24T00:42:16.638Z,60.92
2024-01-24T00:44:44.378Z,60.99
2024-01-24T00:47:11.809Z,61.09
2024-01-24T00:49:39.292Z,60.97
2024-01-24T00:52:07.076Z,61.20
2024-01-24T00:54:34.733Z,60.99
2024-01-24T00:57:02.246Z,61.29
2024-01-24T00:59:31.004Z,61.21
2024-01-24T01:01:58.682Z,61.37
2024-01-24T01:04:26.183Z,61.39
2024-01-24T01:06:53.686Z,61.30
2024-01-24T01:09:21.180Z,61.26
2024-01-24T01:11:48.665Z,61.46
2024-01-24T01:14:16.094Z,61.29
2024-01-24T01:16:44.898Z,61.37
2024-01-24T01:19:12.401Z,61.32
2024-01-24T01:21:41.349Z,61.44
2024-01-24T01:24:09.286Z,61.39
2024-01-24T01:26:36.718Z,61.48
2024-01-24T01:29:04.165Z,61.55
2024-01-24T01:31:31.574Z,61.48
2024-01-24T01:34:02.150Z,61.46
2024-01-24T01:36:29.835Z,61.44
2024-01-24T01:38:57.303Z,61.73
2024-01-24T01:41:25.655Z,61.82
2024-01-24T01:43:53.157Z,61.64
2024-01-24T01:46:20.708Z,61.58
2024-01-24T01:48:50.631Z,61.77
2024-01-24T01:51:19.380Z,61.82
2024-01-24T01:53:46.855Z,61.88
2024-01-24T01:56:15.073Z,61.94
2024-01-24T01:58:42.549Z,62.15
2024-01-24T02:01:10.049Z,61.91
2024-01-24T02:03:37.726Z,62.06
2024-01-24T02:06:05.535Z,61.99
2024-01-24T02:08:35.274Z,62.25
2024-01-24T02:11:02.834Z,62.17
2024-01-24T02:13:31.198Z,62.17
2024-01-24T02:15:58.667Z,62.25
2024-01-24T02:18:26.136Z,62.18
2024-01-24T02:20:53.785Z,62.30
2024-01-24T02:23:21.213Z,62.57
2024-01-24T02:25:52.030Z,62.21
2024-01-24T02:28:19.616Z,62.46
2024-01-24T02:30:47.181Z,62.67
2024-01-24T02:33:15.110Z,62.76
2024-01-24T02:35:42.729Z,62.49
2024-01-24T02:38:10.167Z,62.72
2024-01-24T02:40:37.752Z,62.63
2024-01-24T02:43:07.171Z,62.80
2024-01-24T02:45:34.778Z,62.63
2024-01-24T02:48:02.407Z,62.87
2024-01-24T02:50:29.889Z,63.08
2024-01-24T02:52:57.314Z,63.08
2024-01-24T02:55:24.855Z,63.39
2024-01-24T02:57:52.352Z,63.59
2024-01-24T03:00:21.380Z,63.73
2024-01-24T03:02:48.880Z,63.84
2024-01-24T03:05:16.333Z,64.00
2024-01-24T03:07:43.852Z,64.11
2024-01-24T03:10:11.506Z,64.32
2024-01-24T03:12:39.074Z,64.51
2024-01-24T03:15:07.527Z,64.52
2024-01-24T03:17:36.289Z,64.61
2024-01-24T03:20:04.470Z,64.69
2024-01-24T03:22:31.909Z,65.06
2024-01-24T03:24:59.385Z,65.29
2024-01-24T03:27:26.885Z,65.43
2024-01-24T03:29:54.338Z,65.59
2024-01-24T03:32:21.818Z,65.84
2024-01-24T03:34:57.333Z,65.88
2024-01-24T03:37:24.870Z,65.78
2024-01-24T03:39:52.473Z,65.99
2024-01-24T03:42:20.022Z,66.17
2024-01-24T03:44:47.480Z,66.18
2024-01-24T03:47:14.923Z,65.99
2024-01-24T03:49:42.572Z,66.09
2024-01-24T03:52:11.372Z,66.15
2024-01-24T03:54:38.906Z,66.01
2024-01-24T03:57:06.760Z,66.06
2024-01-24T03:59:34.191Z,65.86
2024-01-24T04:02:01.605Z,66.17
2024-01-24T04:04:29.108Z,66.08
2024-01-24T04:06:56.748Z,65.88
2024-01-24T04:09:25.670Z,65.83
2024-01-24T04:11:53.175Z,66.01
2024-01-24T04:14:20.612Z,66.28
2024-01-24T04:16:48.045Z,66.60
2024-01-24T04:19:16.646Z,66.61
2024-01-24T04:21:44.855Z,66.40
2024-01-24T04:24:12.569Z,66.23
2024-01-24T04:26:41.491Z,66.21
2024-01-24T04:29:12.700Z,66.12
2024-01-24T04:31:41.209Z,66.04
2024-01-24T04:34:08.715Z,65.99
2024-01-24T04:36:37.300Z,66.07
2024-01-24T04:39:04.811Z,66.00
2024-01-24T04:41:32.269Z,66.13
2024-01-24T04:44:01.069Z,66.16
2024-01-24T04:46:28.560Z,66.07
2024-01-24T04:48:56.057Z,66.23
2024-01-24T04:51:24.247Z,66.54
2024-01-24T04:53:51.743Z,66.92
2024-01-24T04:56:19.244Z,66.79
2024-01-24T04:58:46.664Z,66.91
2024-01-24T05:01:15.525Z,67.13
2024-01-24T05:03:43.140Z,67.55
2024-01-24T05:06:11.529Z,67.42
2024-01-24T05:08:39.408Z,67.58
2024-01-24T05:11:07.236Z,67.75
2024-01-24T05:13:34.656Z,67.77
2024-01-24T05:16:02.148Z,67.67
2024-01-24T05:18:31.009Z,67.79
2024-01-24T05:20:58.568Z,67.72
2024-01-24T05:23:26.479Z,68.00
2024-01-24T05:25:53.917Z,68.07
2024-01-24T05:28:21.370Z,68.24
2024-01-24T05:30:48.948Z,68.41
2024-01-24T05:33:16.608Z,68.72
2024-01-24T05:35:46.796Z,68.67
2024-01-24T05:38:14.153Z,68.60
2024-01-24T05:40:41.563Z,68.53
2024-01-24T05:43:09.069Z,68.45
2024-01-24T05:45:36.508Z,68.31
2024-01-24T05:48:04.203Z,68.04
2024-01-24T05:50:31.704Z,67.62
2024-01-24T05:53:00.653Z,67.45
2024-01-24T05:55:28.134Z,67.34
2024-01-24T05:57:55.666Z,67.33
2024-01-24T06:00:23.276Z,67.25
2024-01-24T06:02:50.745Z,67.16
2024-01-24T06:05:19.585Z,66.90
2024-01-24T06:07:50.354Z,66.77
2024-01-24T06:10:19.133Z,66.79
2024-01-24T06:12:46.612Z,66.79
2024-01-24T06:15:14.297Z,66.88
2024-01-24T06:17:41.806Z,66.98
2024-01-24T06:20:10.992Z,66.82
2024-01-24T06:22:38.495Z,66.81
2024-01-24T06:25:08.575Z,66.97
2024-01-24T06:27:37.895Z,66.92
2024-01-24T06:30:18.565Z,67.05
2024-01-24T06:32:50.209Z,66.97
2024-01-24T06:35:18.095Z,66.84
2024-01-24T06:37:45.527Z,66.94
2024-01-24T06:40:13.285Z,66.95
2024-01-24T06:42:42.073Z,67.00
2024-01-24T06:45:10.768Z,66.94
2024-01-24T06:47:38.238Z,66.95
2024-01-24T06:50:07.998Z,66.99
2024-01-24T06:52:35.429Z,66.98
2024-01-24T06:55:02.878Z,67.16
2024-01-24T06:57:30.356Z,67.02
2024-01-24T06:59:59.123Z,66.90
2024-01-24T07:02:27.233Z,66.97
2024-01-24T07:04:54.750Z,66.91
2024-01-24T07:07:22.481Z,67.04
2024-01-24T07:09:51.772Z,66.99
2024-01-24T07:12:21.378Z,66.93
2024-01-24T07:14:52.443Z,66.90
2024-01-24T07:17:21.948Z,66.90
2024-01-24T07:19:52.084Z,66.87
2024-01-24T07:22:19.721Z,66.81
2024-01-24T07:24:47.216Z,66.69
2024-01-24T07:27:14.749Z,66.54
2024-01-24T07:29:42.228Z,66.52
2024-01-24T07:32:09.765Z,66.58
2024-01-24T07:34:39.824Z,66.40
2024-01-24T07:37:08.766Z,66.41
2024-01-24T07:39:36.606Z,66.37
2024-01-24T07:42:04.962Z,66.27
2024-01-24T07:44:32.701Z,66.42
2024-01-24T07:47:02.551Z,66.17
2024-01-24T07:49:30.243Z,66.35
2024-01-24T07:51:59.286Z,66.29
2024-01-24T07:54:26.804Z,66.14
2024-01-24T07:56:55.136Z,66.07
2024-01-24T07:59:23.094Z,66.13
2024-01-24T08:01:51.095Z,66.00
2024-01-24T08:04:19.685Z,65.80
2024-01-24T08:06:48.698Z,65.81
2024-01-24T08:09:18.873Z,65.87
2024-01-24T08:11:46.822Z,66.05
2024-01-24T08:14:14.503Z,65.68
2024-01-24T08:16:43.575Z,65.52
2024-01-24T08:19:11.344Z,65.52
2024-01-24T08:21:39.647Z,65.31
2024-01-24T08:24:07.238Z,65.32
2024-01-24T08:26:36.026Z,65.17
2024-01-24T08:29:03.490Z,65.33
2024-01-24T08:31:31.070Z,65.18
2024-01-24T08:33:58.582Z,65.02
2024-01-24T08:36:26.074Z,65.01
2024-01-24T08:38:53.539Z,64.89
2024-01-24T08:41:20.975Z,64.30
2024-01-24T08:43:49.745Z,63.22
2024-01-24T08:46:17.243Z,63.39
2024-01-24T08:48:44.821Z,63.57
2024-01-24T08:51:12.354Z,63.56
2024-01-24T08:53:39.812Z,63.95
2024-01-24T08:56:07.896Z,64.61
2024-01-24T08:58:35.455Z,65.12
2024-01-24T09:01:04.555Z,65.38
2024-01-24T09:03:32.508Z,65.55
2024-01-24T09:06:00.229Z,65.46
2024-01-24T09:08:28.103Z,64.72
2024-01-24T09:10:55.562Z,64.11
2024-01-24T09:13:24.047Z,63.89
2024-01-24T09:15:52.023Z,63.72
2024-01-24T09:18:21.358Z,63.71
2024-01-24T09:20:49.091Z,63.46
2024-01-24T09:23:16.551Z,63.47
2024-01-24T09:25:44.217Z,63.40
2024-01-24T09:28:11.698Z,63.65
2024-01-24T09:30:40.446Z,63.66
2024-01-24T09:33:08.410Z,63.56
2024-01-24T09:35:37.387Z,63.53
2024-01-24T09:38:05.232Z,63.42
2024-01-24T09:40:32.741Z,63.47
2024-01-24T09:43:02.648Z,63.38
2024-01-24T09:45:30.306Z,63.22
2024-01-24T09:47:59.089Z,63.29
2024-01-24T09:50:26.584Z,63.31
2024-01-24T09:52:55.926Z,63.11
2024-01-24T09:55:23.752Z,63.21
2024-01-24T09:57:51.361Z,63.16
2024-01-24T10:00:19.228Z,63.10
2024-01-24T10:02:47.667Z,63.04
2024-01-24T10:05:17.628Z,63.11
2024-01-24T10:07:46.808Z,62.92
2024-01-24T10:10:16.388Z,62.62
2024-01-24T10:12:44.294Z,62.56
2024-01-24T10:15:12.012Z,62.57
2024-01-24T10:17:41.675Z,62.26
2024-01-24T10:20:12.849Z,62.43
2024-01-24T10:22:40.967Z,62.25
2024-01-24T10:25:11.533Z,62.28
2024-01-24T10:27:40.904Z,62.28
2024-01-24T10:30:10.872Z,62.22
2024-01-24T10:32:38.498Z,62.03
2024-01-24T10:35:06.400Z,61.98
2024-01-24T10:37:34.280Z,61.89
2024-01-24T10:40:06.703Z,61.83
2024-01-24T10:42:36.787Z,61.66
2024-01-24T10:45:06.584Z,61.78
2024-01-24T10:47:34.221Z,61.77
2024-01-24T10:50:04.316Z,61.68
2024-01-24T10:52:32.161Z,61.73
2024-01-24T10:55:03.263Z,61.59
2024-01-24T10:57:30.890Z,61.56
2024-01-24T10:59:58.450Z,61.21
2024-01-24T11:02:27.209Z,61.23
2024-01-24T11:04:54.749Z,61.16
2024-01-24T11:07:25.831Z,61.23
2024-01-24T11:09:56.159Z,61.09
2024-01-24T11:12:23.606Z,61.08
2024-01-24T11:14:52.422Z,60.92
2024-01-24T11:17:19.923Z,60.85
2024-01-24T11:19:48.748Z,60.72
2024-01-24T11:22:29.914Z,60.54
2024-01-24T11:24:59.793Z,60.65
2024-01-24T11:27:28.607Z,60.69
2024-01-24T11:29:57.380Z,60.73
2024-01-24T11:33:10.070Z,60.54
2024-01-24T11:35:39.969Z,60.61
2024-01-24T11:38:16.791Z,60.54
2024-01-24T11:40:52.835Z,60.44
2024-01-24T11:43:24.367Z,60.44
2024-01-24T11:45:52.833Z,60.40
2024-01-24T11:48:20.464Z,60.25
2024-01-24T11:50:54.852Z,60.16
2024-01-24T11:53:22.293Z,60.25
2024-01-24T11:55:53.139Z,60.07
2024-01-24T11:58:20.890Z,59.96
2024-01-24T12:00:48.441Z,59.86
2024-01-24T12:03:17.180Z,59.64
2024-01-24T12:05:44.714Z,59.68
2024-01-24T12:08:13.429Z,59.59
2024-01-24T12:10:40.892Z,59.49
2024-01-24T12:13:08.518Z,59.42
2024-01-24T12:15:36.059Z,59.62
2024-01-24T12:18:05.377Z,59.46
2024-01-24T12:20:33.042Z,59.52
2024-01-24T12:23:00.551Z,59.41
2024-01-24T12:25:29.388Z,59.31
2024-01-24T12:27:58.470Z,59.35
2024-01-24T12:30:27.096Z,59.25
2024-01-24T12:32:58.417Z,59.40
2024-01-24T12:35:26.280Z,59.21
2024-01-24T12:37:53.881Z,59.36
2024-01-24T12:40:21.322Z,59.35
2024-01-24T12:42:50.156Z,59.22
2024-01-24T12:45:17.743Z,59.28
2024-01-24T12:47:45.331Z,59.27
2024-01-24T12:50:13.152Z,59.29
2024-01-24T12:52:42.329Z,59.24
2024-01-24T12:55:10.036Z,59.33
2024-01-24T12:57:37.831Z,59.19
2024-01-24T13:00:11.042Z,59.15
2024-01-24T13:02:38.662Z,59.19
2024-01-24T13:05:07.221Z,59.11
2024-01-24T13:07:37.203Z,59.02
2024-01-24T13:10:07.222Z,58.97
2024-01-24T13:12:36.429Z,58.99
2024-01-24T13:15:05.477Z,58.88
2024-01-24T13:17:34.485Z,58.89
2024-01-24T13:20:05.743Z,58.83
2024-01-24T13:22:33.206Z,58.89
2024-01-24T13:25:00.762Z,58.83
2024-01-24T13:27:28.362Z,58.79
2024-01-24T13:29:55.869Z,58.76
2024-01-24T13:32:23.325Z,58.82
2024-01-24T13:34:53.158Z,58.70
2024-01-24T13:37:20.680Z,58.78
2024-01-24T13:39:48.270Z,58.68
2024-01-24T13:42:15.752Z,58.62
2024-01-24T13:44:43.408Z,58.55
2024-01-24T13:47:10.890Z,58.49
2024-01-24T13:49:38.915Z,58.59
2024-01-24T13:52:07.850Z,58.54
2024-01-24T13:54:35.384Z,58.48
2024-01-24T13:57:03.496Z,58.42
2024-01-24T13:59:31.057Z,58.42
2024-01-24T14:02:00.838Z,58.51
2024-01-24T14:04:29.636Z,58.50
2024-01-24T14:06:57.648Z,58.72
2024-01-24T14:09:26.738Z,58.43
2024-01-24T14:11:55.834Z,58.45
2024-01-24T14:14:28.570Z,58.45
2024-01-24T14:16:57.240Z,58.43
2024-01-24T14:19:25.230Z,58.58
2024-01-24T14:21:53.812Z,58.40
2024-01-24T14:24:21.491Z,58.42
2024-01-24T14:26:50.646Z,58.44
2024-01-24T14:29:18.465Z,58.43
2024-01-24T14:31:46.040Z,58.37
2024-01-24T14:34:13.649Z,58.42
2024-01-24T14:36:42.716Z,58.56
2024-01-24T14:39:12.141Z,58.45
2024-01-24T14:41:39.753Z,58.49
2024-01-24T14:44:08.502Z,58.30
2024-01-24T14:46:35.925Z,58.33
2024-01-24T14:49:03.558Z,58.48
2024-01-24T14:51:31.150Z,58.39
2024-01-24T14:53:58.644Z,58.37
2024-01-24T14:56:26.179Z,58.38
2024-01-24T14:58:53.616Z,58.39
2024-01-24T15:01:22.630Z,58.45
2024-01-24T15:03:50.963Z,58.51
2024-01-24T15:06:18.546Z,58.49
2024-01-24T15:08:46.318Z,58.51
2024-01-24T15:11:13.737Z,58.57
2024-01-24T15:13:41.192Z,58.42
2024-01-24T15:16:08.857Z,58.62
2024-01-24T15:18:39.123Z,58.51
2024-01-24T15:21:09.112Z,58.52
2024-01-24T15:23:40.829Z,58.62
2024-01-24T15:26:09.340Z,58.61
2024-01-24T15:28:39.548Z,58.65
2024-01-24T15:31:08.063Z,58.65
2024-01-24T15:33:35.868Z,58.76
2024-01-24T15:36:05.491Z,58.58
2024-01-24T15:38:33.278Z,58.50
2024-01-24T15:41:00.800Z,58.69
2024-01-24T15:43:28.262Z,58.96
2024-01-24T15:45:56.053Z,58.76
2024-01-24T15:48:23.714Z,58.94
2024-01-24T15:50:51.282Z,58.79
2024-01-24T15:53:20.024Z,58.78
2024-01-24T15:55:47.646Z,58.75
2024-01-24T15:58:15.303Z,58.74
2024-01-24T16:00:42.881Z,58.82
2024-01-24T16:03:10.583Z,58.78
2024-01-24T16:05:42.329Z,58.78
2024-01-24T16:08:09.881Z,58.81
2024-01-24T16:10:38.799Z,58.79
2024-01-24T16:13:06.397Z,58.84
2024-01-24T16:15:34.461Z,58.96
2024-01-24T16:18:02.007Z,58.96
2024-01-24T16:20:29.503Z,58.99
2024-01-24T16:22:57.295Z,58.95
2024-01-24T16:25:25.204Z,59.03
2024-01-24T16:27:54.511Z,58.91
2024-01-24T16:30:25.958Z,58.97
2024-01-24T16:32:54.851Z,59.11
2024-01-24T16:35:23.447Z,59.03
2024-01-24T16:37:51.037Z,59.06
2024-01-24T16:40:18.818Z,59.09
2024-01-24T16:42:46.358Z,59.07
2024-01-24T16:45:15.740Z,59.04
2024-01-24T16:47:45.584Z,58.99
2024-01-24T16:50:13.318Z,59.12
2024-01-24T16:52:41.043Z,59.19
2024-01-24T16:55:09.584Z,59.06
2024-01-24T16:57:37.274Z,59.21
2024-01-24T17:00:05.688Z,59.18
2024-01-24T17:02:42.170Z,59.23
2024-01-24T17:05:13.724Z,59.23
2024-01-24T17:07:41.433Z,59.25
2024-01-24T17:10:09.397Z,59.22
2024-01-24T17:12:37.139Z,59.17
2024-01-24T17:15:04.969Z,59.23
2024-01-24T17:17:33.726Z,59.17
2024-01-24T17:20:01.233Z,59.37
2024-01-24T17:22:28.835Z,59.31
2024-01-24T17:24:56.922Z,59.24
2024-01-24T17:27:24.455Z,59.28
2024-01-24T17:29:51.959Z,59.27
2024-01-24T17:32:19.385Z,59.32
2024-01-24T17:34:48.212Z,59.35
2024-01-24T17:37:16.183Z,59.34
2024-01-24T17:39:43.801Z,59.25
2024-01-24T17:42:12.049Z,59.30
2024-01-24T17:44:39.627Z,59.42
2024-01-24T17:47:07.237Z,59.44
2024-01-24T17:49:34.907Z,59.49
2024-01-24T17:52:04.210Z,59.52
2024-01-24T17:54:31.953Z,59.54
2024-01-24T17:56:59.544Z,59.56
2024-01-24T17:59:27.019Z,59.58
2024-01-24T18:01:54.660Z,59.53
2024-01-24T18:04:22.259Z,59.49
2024-01-24T18:06:49.826Z,59.68
2024-01-24T18:09:20.135Z,59.65
2024-01-24T18:11:47.564Z,59.60
2024-01-24T18:14:15.007Z,59.69
2024-01-24T18:16:42.822Z,59.65
2024-01-24T18:19:10.378Z,59.71
2024-01-24T18:21:37.942Z,59.92
2024-01-24T18:24:06.026Z,59.72
2024-01-24T18:26:34.878Z,59.88
2024-01-24T18:29:02.515Z,59.77
2024-01-24T18:31:29.972Z,59.74
2024-01-24T18:33:57.910Z,59.84
2024-01-24T18:36:25.468Z,59.73
2024-01-24T18:38:52.914Z,59.83
2024-01-24T18:41:21.033Z,59.77
2024-01-24T18:43:52.196Z,59.90
2024-01-24T18:46:21.518Z,59.79
2024-01-24T18:48:49.198Z,59.81
2024-01-24T18:51:17.735Z,59.77
2024-01-24T18:53:45.581Z,59.85
2024-01-24T18:56:13.876Z,59.80
2024-01-24T18:58:41.435Z,59.91
2024-01-24T19:01:10.579Z,59.93
2024-01-24T19:03:38.841Z,60.14
2024-01-24T19:06:06.789Z,59.83
2024-01-24T19:08:37.168Z,59.89
2024-01-24T19:11:04.877Z,59.55
2024-01-24T19:13:34.541Z,59.92
2024-01-24T19:16:02.051Z,59.75
2024-01-24T19:18:31.038Z,59.80
2024-01-24T19:20:58.594Z,59.81
2024-01-24T19:23:26.237Z,59.76
2024-01-24T19:25:53.821Z,59.81
2024-01-24T19:28:21.297Z,59.96
2024-01-24T19:30:48.819Z,59.91
2024-01-24T19:33:16.404Z,59.88
2024-01-24T19:35:45.332Z,59.80
2024-01-24T19:38:12.858Z,59.87
2024-01-24T19:40:41.613Z,59.89
2024-01-24T19:43:09.183Z,59.97
2024-01-24T19:45:37.042Z,59.73
2024-01-24T19:48:05.058Z,59.86
2024-01-24T19:50:32.596Z,60.10
2024-01-24T19:53:02.410Z,60.11
2024-01-24T19:55:30.648Z,60.05
2024-01-24T19:57:58.983Z,60.02
2024-01-24T20:00:26.827Z,60.00
2024-01-24T20:02:54.318Z,60.07
2024-01-24T20:05:21.813Z,60.14
2024-01-24T20:07:49.532Z,60.15
2024-01-24T20:10:19.452Z,59.83
2024-01-24T20:12:46.909Z,60.14
2024-01-24T20:15:14.399Z,60.18
2024-01-24T20:17:46.114Z,60.15
2024-01-24T20:20:15.011Z,60.29
2024-01-24T20:22:42.642Z,60.36
2024-01-24T20:25:10.515Z,60.17
2024-01-24T20:27:39.370Z,60.21
2024-01-24T20:30:07.705Z,60.23
2024-01-24T20:32:42.617Z,60.34
2024-01-24T20:35:16.433Z,60.32
2024-01-24T20:37:43.890Z,60.38
2024-01-24T20:40:12.148Z,60.34
2024-01-24T20:42:40.939Z,60.38
2024-01-24T20:45:08.820Z,60.49
2024-01-24T20:47:36.602Z,60.46
2024-01-24T20:50:04.234Z,60.40
2024-01-24T20:52:31.805Z,60.51
2024-01-24T20:54:59.288Z,60.54
2024-01-24T20:57:27.375Z,60.43
2024-01-24T20:59:57.557Z,60.58
2024-01-24T21:02:25.081Z,60.51
2024-01-24T21:04:53.132Z,60.42
2024-01-24T21:07:21.435Z,60.38
2024-01-24T21:09:49.028Z,60.29
2024-01-24T21:12:16.579Z,60.24
2024-01-24T21:14:44.280Z,60.42
2024-01-24T21:17:13.319Z,60.36
2024-01-24T21:19:40.869Z,60.53
2024-01-24T21:22:08.584Z,60.53
2024-01-24T21:24:36.091Z,60.41
2024-01-24T21:27:03.654Z,60.31
2024-01-24T21:29:31.092Z,60.43
2024-01-24T21:31:59.420Z,60.37
2024-01-24T21:34:28.333Z,60.31
2024-01-24T21:36:55.948Z,60.45
2024-01-24T21:39:23.439Z,60.55
2024-01-24T21:41:50.904Z,60.53
2024-01-24T21:44:18.904Z,60.41
2024-01-24T21:46:46.527Z,60.51
2024-01-24T21:49:14.022Z,60.42
2024-01-24T21:51:42.803Z,60.70
2024-01-24T21:54:10.261Z,60.58
2024-01-24T21:56:37.739Z,60.67
2024-01-24T21:59:05.221Z,60.68
2024-01-24T22:01:33.783Z,60.44
2024-01-24T22:04:02.019Z,60.60
2024-01-24T22:06:29.524Z,60.55
2024-01-24T22:08:59.242Z,60.52
2024-01-24T22:11:27.173Z,60.79
2024-01-24T22:13:54.688Z,60.54
2024-01-24T22:16:22.402Z,60.65
2024-01-24T22:18:51.096Z,60.85
2024-01-24T22:21:18.640Z,60.68
2024-01-24T22:23:46.249Z,60.78
2024-01-24T22:26:14.979Z,60.56
2024-01-24T22:28:42.583Z,60.61
2024-01-24T22:31:10.140Z,60.40
2024-01-24T22:33:37.748Z,60.58
2024-01-24T22:36:05.954Z,60.50
2024-01-24T22:38:33.399Z,60.54
2024-01-24T22:41:01.109Z,60.60
2024-01-24T22:43:29.900Z,60.87
2024-01-24T22:45:57.363Z,60.82
2024-01-24T22:48:24.940Z,60.83
2024-01-24T22:50:52.462Z,60.81
2024-01-24T22:53:19.898Z,60.75
2024-01-24T22:55:47.371Z,60.86
2024-01-24T22:58:14.887Z,60.93
2024-01-24T23:00:43.806Z,60.82
2024-01-24T23:03:11.837Z,60.66
2024-01-24T23:05:39.381Z,60.62
2024-01-24T23:08:08.072Z,60.59
2024-01-24T23:10:35.596Z,60.79
2024-01-24T23:13:03.093Z,60.72
2024-01-24T23:15:30.627Z,60.80
2024-01-24T23:17:59.726Z,60.81
2024-01-24T23:20:27.329Z,60.89
2024-01-24T23:22:54.894Z,60.94
2024-01-24T23:25:22.473Z,60.79
2024-01-24T23:27:49.962Z,60.82
2024-01-24T23:30:18.182Z,60.78
2024-01-24T23:32:46.459Z,60.88
2024-01-24T23:35:15.798Z,60.94
2024-01-24T23:37:43.487Z,61.02
2024-01-24T23:40:11.867Z,60.79
2024-01-24T23:42:39.826Z,61.15
2024-01-24T23:45:08.044Z,60.99
2024-01-24T23:47:35.565Z,61.19
2024-01-24T23:50:03.175Z,61.23
2024-01-24T23:52:32.156Z,61.08
2024-01-24T23:54:59.615Z,61.12
2024-01-24T23:57:27.194Z,60.95
2024-01-24T23:59:54.719Z,61.14
